Time;durP1;ratioP1;P1;durP2;ratioP2;P2;SDS_P1;SDS_P2;PMS_P1;PMS_P2;Temp;Humidity;BMP_temperature;BMP_pressure;BME280_temperature;BME280_humidity;BME280_pressure;Samples;Min_cycle;Max_cycle;Signal;HPM_P1;HPM_P2
2022/05/01 00:02:10;;;;;;;21.63;17.38;;;7.50;99.90;;;;;;4939978;28;94596;-32
2022/05/01 00:04:35;;;;;;;18.77;16.77;;;7.40;99.90;;;;;;4940577;28;88462;-34
2022/05/01 00:07:01;;;;;;;20.27;17.70;;;7.50;99.90;;;;;;4939924;28;90370;-36
2022/05/01 00:09:27;;;;;;;19.65;16.17;;;7.40;99.90;;;;;;4940777;28;90577;-34
2022/05/01 00:11:53;;;;;;;30.55;17.92;;;7.40;99.90;;;;;;4939825;28;89685;-33
2022/05/01 00:14:19;;;;;;;21.15;18.60;;;7.50;99.90;;;;;;4940467;28;90651;-37
2022/05/01 00:16:44;;;;;;;20.13;16.98;;;7.40;99.90;;;;;;4940428;28;89692;-33
2022/05/01 00:19:10;;;;;;;24.55;18.85;;;7.40;99.90;;;;;;4939570;28;91061;-34
2022/05/01 00:21:36;;;;;;;20.38;18.35;;;7.40;99.90;;;;;;4939413;28;90841;-34
2022/05/01 00:24:03;;;;;;;22.42;20.00;;;7.40;99.90;;;;;;4940096;28;90307;-32
2022/05/01 00:26:29;;;;;;;19.95;17.95;;;7.40;99.90;;;;;;4939730;28;90475;-33
2022/05/01 00:28:55;;;;;;;19.27;17.27;;;7.40;99.90;;;;;;4939611;28;89391;-34
2022/05/01 00:31:20;;;;;;;23.15;17.92;;;7.40;99.90;;;;;;4939579;28;89805;-33
2022/05/01 00:36:30;;;;;;;20.15;17.70;;;7.30;99.90;;;;;;4968019;22;89984;-35
2022/05/01 00:38:57;;;;;;;22.30;18.48;;;7.30;99.90;;;;;;4940102;28;90055;-38
2022/05/01 00:41:23;;;;;;;20.90;18.67;;;7.30;99.90;;;;;;4921849;28;91160;-35
2022/05/01 00:43:55;;;;;;;18.48;16.50;;;7.30;99.90;;;;;;4931389;28;89982;-34
2022/05/01 00:46:21;;;;;;;18.92;16.95;;;7.20;99.90;;;;;;4920285;28;91325;-31
2022/05/01 00:48:47;;;;;;;21.58;19.08;;;7.20;99.90;;;;;;4920045;28;89527;-34
2022/05/01 00:51:13;;;;;;;19.42;16.67;;;7.20;99.90;;;;;;4920537;28;89341;-35
2022/05/01 00:53:39;;;;;;;24.00;19.85;;;7.10;99.90;;;;;;4902416;28;89241;-35
2022/05/01 00:56:06;;;;;;;23.67;18.77;;;7.20;99.90;;;;;;4920346;28;88848;-35
2022/05/01 00:58:32;;;;;;;21.20;18.92;;;7.20;99.90;;;;;;4920536;28;88272;-36
2022/05/01 01:00:58;;;;;;;20.13;17.77;;;7.20;99.90;;;;;;4919863;28;90936;-34
2022/05/01 01:03:23;;;;;;;26.48;19.75;;;7.10;99.90;;;;;;4920373;28;89710;-33
2022/05/01 01:05:49;;;;;;;20.08;18.02;;;7.20;99.90;;;;;;4919635;28;91447;-33
2022/05/01 01:08:14;;;;;;;23.20;18.38;;;7.20;99.90;;;;;;4919172;28;90704;-34
2022/05/01 01:10:40;;;;;;;22.00;18.70;;;7.20;99.90;;;;;;4919595;28;89043;-35
2022/05/01 01:13:06;;;;;;;23.80;20.10;;;7.20;99.90;;;;;;4919497;28;89277;-33
2022/05/01 01:15:32;;;;;;;22.05;18.65;;;7.10;99.90;;;;;;4920214;28;90579;-32
2022/05/01 01:17:58;;;;;;;21.30;19.05;;;7.20;99.90;;;;;;4919693;28;89495;-35
2022/05/01 01:20:26;;;;;;;24.02;19.63;;;7.20;99.90;;;;;;4919229;28;89903;-35
2022/05/01 01:22:53;;;;;;;24.90;20.80;;;7.20;99.90;;;;;;4919873;28;89562;-37
2022/05/01 01:25:22;;;;;;;22.63;20.37;;;7.10;99.90;;;;;;4920688;28;89862;-36
2022/05/01 01:27:51;;;;;;;28.02;20.73;;;7.10;99.90;;;;;;4919959;28;89633;-33
2022/05/01 01:33:03;;;;;;;25.13;22.02;;;7.10;99.90;;;;;;4918485;28;90241;-36
2022/05/01 01:35:29;;;;;;;23.70;21.20;;;7.10;99.90;;;;;;4920241;28;91403;-35
2022/05/01 01:37:55;;;;;;;23.17;20.77;;;7.10;99.90;;;;;;4918999;28;90637;-32
2022/05/01 01:40:28;;;;;;;23.98;21.13;;;7.10;99.90;;;;;;4920632;28;89440;-35
2022/05/01 01:42:55;;;;;;;27.92;22.05;;;7.10;99.90;;;;;;4922732;28;88205;-35
2022/05/01 01:45:22;;;;;;;28.45;22.27;;;7.10;99.90;;;;;;4922367;28;90307;-32
2022/05/01 01:47:49;;;;;;;29.15;21.17;;;7.10;99.90;;;;;;4923168;28;89722;-37
2022/05/01 01:50:18;;;;;;;25.25;21.60;;;7.10;99.90;;;;;;4922050;28;89700;-32
2022/05/01 01:52:47;;;;;;;24.70;20.95;;;7.00;99.90;;;;;;4923137;28;89949;-33
2022/05/01 01:55:17;;;;;;;24.13;21.58;;;7.00;99.90;;;;;;4923341;28;91603;-35
2022/05/01 01:57:45;;;;;;;23.75;21.33;;;7.00;99.90;;;;;;4922408;28;91150;-32
2022/05/01 02:00:11;;;;;;;23.75;19.88;;;7.00;99.90;;;;;;4922689;28;91777;-34
2022/05/01 02:02:37;;;;;;;22.38;19.98;;;7.10;99.90;;;;;;4922506;28;89736;-37
2022/05/01 02:05:04;;;;;;;25.30;20.48;;;7.10;99.90;;;;;;4923323;28;90800;-33
2022/05/01 02:07:30;;;;;;;26.17;21.73;;;7.20;99.90;;;;;;4922122;28;89670;-35
2022/05/01 02:09:57;;;;;;;26.50;22.42;;;7.20;99.90;;;;;;4922291;28;89221;-34
2022/05/01 02:12:22;;;;;;;26.23;23.52;;;7.20;99.90;;;;;;4922800;28;88851;-32
2022/05/01 02:14:48;;;;;;;26.35;23.50;;;7.20;99.90;;;;;;4922085;28;90276;-32
2022/05/01 02:17:14;;;;;;;29.80;24.70;;;7.10;99.90;;;;;;4922660;28;89713;-35
2022/05/01 02:19:39;;;;;;;26.27;23.27;;;7.10;99.90;;;;;;4922284;28;89507;-36
2022/05/01 02:22:05;;;;;;;26.30;20.95;;;7.10;99.90;;;;;;4922177;28;88938;-34
2022/05/01 02:24:31;;;;;;;24.42;21.90;;;7.20;99.90;;;;;;4922647;28;91787;-35
2022/05/01 02:26:57;;;;;;;27.42;21.98;;;7.20;99.90;;;;;;4921830;28;90123;-32
2022/05/01 02:29:22;;;;;;;28.02;24.23;;;7.20;99.90;;;;;;4922543;28;89849;-33
2022/05/01 02:31:53;;;;;;;28.92;23.48;;;7.20;99.90;;;;;;4922008;28;88777;-33
2022/05/01 02:34:21;;;;;;;41.45;22.60;;;7.20;99.90;;;;;;4922472;28;90469;-33
2022/05/01 02:36:46;;;;;;;27.15;22.88;;;7.20;99.90;;;;;;4921079;28;89857;-32
2022/05/01 02:39:13;;;;;;;26.20;23.40;;;7.10;99.90;;;;;;4922507;28;90193;-32
2022/05/01 02:41:39;;;;;;;26.77;23.42;;;7.10;99.90;;;;;;4921807;28;89021;-35
2022/05/01 02:44:05;;;;;;;26.40;23.00;;;7.10;99.90;;;;;;4922112;28;90214;-33
2022/05/01 02:46:32;;;;;;;27.50;24.73;;;7.10;99.90;;;;;;4920171;28;91450;-34
2022/05/01 02:48:58;;;;;;;25.73;22.55;;;7.10;99.90;;;;;;4903608;28;90578;-35
2022/05/01 02:51:24;;;;;;;30.65;24.20;;;7.10;99.90;;;;;;4903706;28;89440;-38
2022/05/01 02:53:50;;;;;;;28.95;24.65;;;7.10;99.90;;;;;;4921829;28;90289;-34
2022/05/01 02:56:16;;;;;;;26.42;23.33;;;7.20;99.90;;;;;;4921976;28;89666;-32
2022/05/01 02:58:41;;;;;;;27.70;22.35;;;7.20;99.90;;;;;;4922076;28;89557;-36
2022/05/01 03:01:07;;;;;;;27.60;23.13;;;7.20;99.90;;;;;;4921951;28;88774;-32
2022/05/01 03:03:33;;;;;;;29.45;23.10;;;7.20;99.90;;;;;;4922531;28;90235;-31
2022/05/01 03:05:58;;;;;;;27.92;22.63;;;7.20;99.90;;;;;;4922012;28;89558;-32
2022/05/01 03:08:25;;;;;;;25.92;22.67;;;7.20;99.90;;;;;;4921752;28;89236;-33
2022/05/01 03:10:51;;;;;;;27.50;22.48;;;7.20;99.90;;;;;;4921177;28;89265;-34
2022/05/01 03:13:17;;;;;;;26.90;23.45;;;7.10;99.90;;;;;;4921435;28;90930;-34
2022/05/01 03:15:43;;;;;;;26.15;22.17;;;7.20;99.90;;;;;;4921043;28;89642;-38
2022/05/01 03:23:38;;;;;;;28.55;23.25;;;7.10;99.90;;;;;;4920898;28;90192;-34
2022/05/01 03:26:04;;;;;;;28.50;24.10;;;7.10;99.90;;;;;;4921252;28;90112;-31
2022/05/01 03:28:29;;;;;;;29.38;22.90;;;7.10;99.90;;;;;;4921573;28;90083;-36
2022/05/01 03:30:56;;;;;;;32.25;22.90;;;7.10;99.90;;;;;;4921453;28;87866;-32
2022/05/01 03:33:22;;;;;;;28.60;22.13;;;7.10;99.90;;;;;;4921128;28;90167;-33
2022/05/01 03:35:49;;;;;;;25.98;22.30;;;7.10;99.90;;;;;;4920829;28;91184;-33
2022/05/01 03:38:16;;;;;;;30.50;24.17;;;7.00;99.90;;;;;;4921136;28;91421;-32
2022/05/01 03:40:47;;;;;;;33.03;24.45;;;7.10;99.90;;;;;;4920698;28;89398;-35
2022/05/01 03:43:15;;;;;;;30.02;23.13;;;7.10;99.90;;;;;;4921602;28;91250;-33
2022/05/01 03:45:41;;;;;;;34.20;24.98;;;7.10;99.90;;;;;;4919136;28;90558;-34
2022/05/01 03:48:07;;;;;;;35.22;25.90;;;7.10;99.90;;;;;;4920692;28;89337;-34
2022/05/01 03:50:33;;;;;;;29.88;24.88;;;7.10;99.90;;;;;;4921675;28;88898;-33
2022/05/01 03:52:58;;;;;;;35.05;27.88;;;7.10;99.90;;;;;;4920910;28;91209;-33
2022/05/01 03:55:24;;;;;;;29.77;24.38;;;7.10;99.90;;;;;;4921481;28;91125;-31
2022/05/01 03:57:49;;;;;;;29.23;26.30;;;7.10;99.90;;;;;;4920160;28;89899;-35
2022/05/01 04:00:18;;;;;;;28.67;24.42;;;7.10;99.90;;;;;;4921077;28;90056;-32
2022/05/01 04:02:44;;;;;;;;;;;7.00;99.90;;;;;;4921165;28;89983;-33
2022/05/01 04:05:11;;;;;;;32.08;26.50;;;7.10;99.90;;;;;;4922417;28;89714;-36
2022/05/01 04:07:36;;;;;;;34.85;26.65;;;7.00;99.90;;;;;;4920121;28;89884;-34
2022/05/01 04:10:02;;;;;;;31.77;26.75;;;7.00;99.90;;;;;;4921616;28;89315;-34
2022/05/01 04:12:28;;;;;;;38.42;29.67;;;6.90;99.90;;;;;;4902617;28;90726;-36
2022/05/01 04:14:53;;;;;;;32.03;28.58;;;6.90;99.90;;;;;;4920660;28;88584;-35
2022/05/01 04:17:19;;;;;;;32.78;29.08;;;7.00;99.90;;;;;;4920221;28;92738;-34
2022/05/01 04:19:44;;;;;;;30.65;27.02;;;7.00;99.90;;;;;;4920628;28;87842;-34
2022/05/01 04:22:10;;;;;;;31.08;27.58;;;7.00;99.90;;;;;;4920632;28;92528;-33
2022/05/01 04:24:35;;;;;;;33.83;27.58;;;7.00;99.90;;;;;;4919448;28;90745;-35
2022/05/01 04:27:04;;;;;;;35.05;28.00;;;7.00;99.90;;;;;;4921112;28;90502;-32
2022/05/01 04:29:39;;;;;;;32.90;27.58;;;7.10;99.90;;;;;;4920556;28;89405;-34
2022/05/01 04:32:06;;;;;;;31.92;28.65;;;7.00;99.90;;;;;;4920973;28;89747;-36
2022/05/01 04:34:32;;;;;;;35.63;28.67;;;7.00;99.90;;;;;;4920986;28;90565;-36
2022/05/01 04:36:58;;;;;;;31.75;27.13;;;7.00;99.90;;;;;;4919575;28;89526;-34
2022/05/01 04:39:25;;;;;;;36.28;29.10;;;7.00;99.90;;;;;;4920388;28;88329;-35
2022/05/01 04:41:51;;;;;;;33.67;28.20;;;7.00;99.90;;;;;;4920844;28;91583;-32
2022/05/01 04:44:16;;;;;;;38.97;31.80;;;7.00;99.90;;;;;;4920401;28;89542;-33
2022/05/01 04:46:43;;;;;;;39.53;30.33;;;7.10;99.90;;;;;;4920255;28;89625;-36
2022/05/01 04:49:09;;;;;;;35.13;28.83;;;7.10;99.90;;;;;;4920496;28;90288;-32
2022/05/01 04:51:35;;;;;;;34.15;30.30;;;7.00;99.90;;;;;;4919341;28;90102;-36
2022/05/01 04:54:00;;;;;;;34.90;30.83;;;7.00;99.90;;;;;;4920670;28;89884;-34
2022/05/01 04:59:10;;;;;;;34.13;29.55;;;6.90;99.90;;;;;;4920319;28;89180;-36
2022/05/01 05:01:36;;;;;;;32.35;28.83;;;7.00;99.90;;;;;;4919597;28;90115;-34
2022/05/01 05:04:03;;;;;;;36.55;30.75;;;7.00;99.90;;;;;;4919530;28;89927;-36
2022/05/01 05:06:29;;;;;;;39.35;30.83;;;7.00;99.90;;;;;;4920766;28;89485;-35
2022/05/01 05:11:38;;;;;;;33.40;29.83;;;7.00;99.90;;;;;;4919819;28;90608;-33
2022/05/01 05:14:05;;;;;;;36.38;30.10;;;7.00;99.90;;;;;;4919313;28;91664;-33
2022/05/01 05:16:31;;;;;;;39.63;32.53;;;7.00;99.90;;;;;;4918879;28;90625;-33
2022/05/01 05:18:56;;;;;;;31.50;27.50;;;7.00;99.90;;;;;;4920080;28;88197;-34
2022/05/01 05:21:22;;;;;;;34.47;28.58;;;7.00;99.90;;;;;;4920067;28;90015;-33
2022/05/01 05:23:48;;;;;;;40.92;30.92;;;7.00;99.90;;;;;;4919472;28;89896;-35
2022/05/01 05:26:13;;;;;;;34.80;30.70;;;7.10;99.90;;;;;;4920152;28;90505;-34
2022/05/01 05:28:39;;;;;;;35.65;29.67;;;7.10;99.90;;;;;;4919690;28;88387;-34
2022/05/01 05:31:04;;;;;;;34.17;30.55;;;7.10;99.90;;;;;;4920635;28;90208;-33
2022/05/01 05:33:30;;;;;;;36.92;32.30;;;7.10;99.90;;;;;;4919981;28;89829;-32
2022/05/01 05:35:56;;;;;;;35.47;30.00;;;7.10;99.90;;;;;;4919496;28;89454;-32
2022/05/01 05:38:21;;;;;;;32.00;27.83;;;7.20;99.90;;;;;;4918954;28;88058;-35
2022/05/01 05:40:47;;;;;;;35.25;28.90;;;7.20;99.90;;;;;;4919369;28;90671;-32
2022/05/01 05:43:13;;;;;;;33.55;28.33;;;7.30;99.90;;;;;;4919971;28;91022;-33
2022/05/01 05:45:39;;;;;;;36.38;29.35;;;7.30;99.90;;;;;;4919231;28;89543;-32
2022/05/01 05:48:05;;;;;;;34.60;28.88;;;7.40;99.90;;;;;;4920208;28;89937;-32
2022/05/01 05:50:31;;;;;;;33.15;29.60;;;7.40;99.90;;;;;;4919794;28;90148;-33
2022/05/01 05:52:57;;;;;;;31.73;28.42;;;7.40;99.90;;;;;;4919228;28;89884;-34
2022/05/01 05:55:22;;;;;;;32.55;27.58;;;7.40;99.90;;;;;;4919945;28;89139;-33
2022/05/01 05:57:48;;;;;;;30.92;27.42;;;7.40;99.90;;;;;;4919210;28;87866;-32
2022/05/01 06:00:14;;;;;;;30.05;26.80;;;7.40;99.90;;;;;;4919453;28;90112;-36
2022/05/01 06:02:40;;;;;;;40.05;29.92;;;7.50;99.90;;;;;;4918471;28;90426;-32
2022/05/01 06:05:06;;;;;;;34.80;28.42;;;7.60;99.90;;;;;;4919185;28;89955;-36
2022/05/01 06:07:32;;;;;;;31.50;27.73;;;7.60;99.90;;;;;;4919483;28;89588;-33
2022/05/01 06:09:58;;;;;;;34.17;30.42;;;7.60;99.90;;;;;;4901227;28;93778;-35
2022/05/01 06:12:24;;;;;;;34.95;29.05;;;7.70;99.90;;;;;;4902131;28;89995;-34
2022/05/01 06:14:49;;;;;;;36.15;29.50;;;7.70;99.90;;;;;;4900797;28;90607;-36
2022/05/01 06:17:15;;;;;;;35.08;29.45;;;7.70;99.90;;;;;;4919096;28;88223;-33
2022/05/01 06:19:40;;;;;;;31.23;27.58;;;7.70;99.90;;;;;;4919239;28;91527;-32
2022/05/01 06:22:06;;;;;;;35.10;28.67;;;7.70;99.90;;;;;;4918957;28;91097;-31
2022/05/01 06:24:32;;;;;;;31.40;28.00;;;7.70;99.90;;;;;;4919510;28;89619;-36
2022/05/01 06:26:58;;;;;;;34.22;29.10;;;7.70;99.90;;;;;;4900941;28;89621;-36
2022/05/01 06:29:24;;;;;;;33.33;28.08;;;7.70;99.90;;;;;;4921694;28;89107;-37
2022/05/01 06:31:51;;;;;;;34.10;30.13;;;7.70;99.90;;;;;;4922146;28;89753;-34
2022/05/01 06:34:17;;;;;;;34.13;27.77;;;7.70;99.90;;;;;;4922701;28;89312;-33
2022/05/01 06:36:43;;;;;;;35.42;28.88;;;7.80;99.90;;;;;;4921934;28;89545;-34
2022/05/01 06:39:11;;;;;;;39.28;29.85;;;7.80;99.90;;;;;;4922382;28;90299;-33
2022/05/01 06:41:38;;;;;;;37.67;27.70;;;7.90;99.90;;;;;;4921554;28;89711;-31
2022/05/01 06:44:04;;;;;;;37.25;27.85;;;7.90;99.90;;;;;;4922485;28;89561;-35
2022/05/01 06:46:30;;;;;;;32.35;27.63;;;8.00;99.90;;;;;;4922439;28;89400;-33
2022/05/01 06:48:55;;;;;;;30.42;26.58;;;8.10;99.90;;;;;;4921766;28;90058;-34
2022/05/01 06:51:21;;;;;;;31.52;27.73;;;8.00;99.90;;;;;;4921688;28;90515;-33
2022/05/01 06:53:46;;;;;;;38.33;29.35;;;8.10;99.90;;;;;;4921361;28;90942;-33
2022/05/01 06:56:12;;;;;;;29.67;26.40;;;8.20;99.90;;;;;;4922149;28;88364;-37
2022/05/01 06:58:37;;;;;;;32.13;28.65;;;8.30;99.90;;;;;;4921639;28;89865;-36
2022/05/01 07:01:03;;;;;;;31.10;27.50;;;8.30;99.90;;;;;;4921557;28;89608;-37
2022/05/01 07:03:29;;;;;;;33.28;28.98;;;8.40;99.90;;;;;;4921926;28;89849;-33
2022/05/01 07:05:54;;;;;;;33.28;27.95;;;8.60;99.90;;;;;;4920939;28;89603;-34
2022/05/01 07:08:20;;;;;;;35.35;27.23;;;8.60;99.90;;;;;;4930606;28;90712;-32
2022/05/01 07:10:45;;;;;;;30.50;26.50;;;8.50;99.90;;;;;;4938031;28;89284;-33
2022/05/01 07:13:11;;;;;;;30.17;25.75;;;8.60;99.90;;;;;;4939885;28;89748;-37
2022/05/01 07:15:40;;;;;;;34.63;27.55;;;8.70;99.90;;;;;;4938953;28;90020;-33
2022/05/01 07:18:06;;;;;;;29.35;26.10;;;8.60;99.90;;;;;;4940333;28;90691;-38
2022/05/01 07:20:34;;;;;;;29.98;26.75;;;8.70;99.90;;;;;;4941055;28;90198;-34
2022/05/01 07:23:00;;;;;;;31.30;26.63;;;8.80;99.90;;;;;;4941529;28;89995;-36
2022/05/01 07:25:25;;;;;;;29.42;24.85;;;9.00;99.90;;;;;;4941707;28;89074;-33
2022/05/01 07:27:51;;;;;;;27.98;24.98;;;9.00;99.90;;;;;;4940471;28;90321;-35
2022/05/01 07:30:16;;;;;;;33.65;27.40;;;9.10;99.90;;;;;;4941010;28;89794;-33
2022/05/01 07:32:42;;;;;;;31.10;24.05;;;9.20;99.90;;;;;;4940482;28;90091;-34
2022/05/01 07:35:08;;;;;;;27.08;24.17;;;9.20;99.90;;;;;;4941377;28;88387;-34
2022/05/01 07:37:34;;;;;;;32.05;23.75;;;9.10;99.90;;;;;;4939510;28;90363;-36
2022/05/01 07:40:01;;;;;;;25.63;22.83;;;9.20;99.90;;;;;;4940271;28;91252;-32
2022/05/01 07:42:27;;;;;;;26.85;22.52;;;9.40;99.90;;;;;;4941443;28;88875;-33
2022/05/01 07:44:53;;;;;;;26.75;23.52;;;9.50;99.90;;;;;;4940431;28;88201;-35
2022/05/01 07:47:19;;;;;;;25.92;23.27;;;9.50;99.90;;;;;;4941074;28;90505;-37
2022/05/01 07:49:45;;;;;;;27.55;24.17;;;9.50;99.90;;;;;;4922221;28;89686;-34
2022/05/01 07:52:10;;;;;;;25.15;22.48;;;9.60;99.90;;;;;;4940275;28;89655;-35
2022/05/01 07:54:36;;;;;;;23.58;21.08;;;9.70;99.90;;;;;;4940794;28;89510;-33
2022/05/01 07:57:02;;;;;;;33.17;22.42;;;9.60;99.90;;;;;;4940393;28;90219;-36
2022/05/01 07:59:27;;;;;;;21.67;18.75;;;9.80;99.90;;;;;;4941334;28;90243;-35
2022/05/01 08:01:54;;;;;;;22.25;19.88;;;10.00;99.90;;;;;;4939752;28;89619;-35
2022/05/01 08:04:29;;;;;;;24.77;20.08;;;9.90;99.90;;;;;;4940305;28;90028;-33
2022/05/01 08:06:56;;;;;;;20.17;18.08;;;10.10;99.90;;;;;;4940196;28;90499;-33
2022/05/01 08:09:22;;;;;;;19.73;17.83;;;10.30;99.90;;;;;;4940117;28;90009;-36
2022/05/01 08:11:47;;;;;;;20.40;17.60;;;10.40;99.90;;;;;;4932913;28;89977;-33
2022/05/01 08:14:13;;;;;;;20.58;17.92;;;10.20;99.90;;;;;;4938481;28;88863;-33
2022/05/01 08:16:42;;;;;;;21.98;18.08;;;10.30;99.90;;;;;;4936999;28;89986;-34
2022/05/01 08:21:52;;;;;;;24.48;18.58;;;10.80;99.90;;;;;;4928671;28;90626;-32
2022/05/01 08:24:18;;;;;;;22.55;16.90;;;11.00;99.90;;;;;;4936862;28;89536;-33
2022/05/01 08:26:47;;;;;;;22.63;17.95;;;10.90;99.90;;;;;;4937911;28;90389;-36
2022/05/01 08:29:16;;;;;;;21.10;17.30;;;11.10;99.90;;;;;;4937517;28;90789;-33
2022/05/01 08:31:45;;;;;;;24.38;17.50;;;11.00;99.90;;;;;;4936400;28;91029;-35
2022/05/01 08:34:11;;;;;;;21.55;18.20;;;10.80;99.90;;;;;;4938126;28;89394;-33
2022/05/01 08:36:38;;;;;;;28.70;17.95;;;10.80;99.90;;;;;;4937012;28;90087;-34
2022/05/01 08:39:04;;;;;;;16.77;15.13;;;10.80;99.90;;;;;;4937503;28;90843;-35
2022/05/01 08:41:31;;;;;;;18.23;16.40;;;11.10;99.90;;;;;;4937861;28;89903;-35
2022/05/01 08:43:57;;;;;;;21.88;16.35;;;11.10;99.90;;;;;;4936887;28;88388;-36
2022/05/01 08:46:51;;;;;;;17.40;15.60;;;11.30;99.90;;;;;;4936564;28;89107;-36
2022/05/01 08:49:17;;;;;;;19.85;15.70;;;11.50;99.90;;;;;;4937143;28;89591;-32
2022/05/01 08:51:43;;;;;;;20.27;15.00;;;11.80;99.90;;;;;;4936326;28;89110;-33
2022/05/01 08:54:11;;;;;;;20.48;15.77;;;12.00;99.90;;;;;;4937746;28;89503;-33
2022/05/01 08:56:40;;;;;;;16.92;15.10;;;12.10;99.90;;;;;;4937538;28;90263;-32
2022/05/01 08:59:11;;;;;;;17.77;14.13;;;12.20;99.90;;;;;;4937380;28;90630;-34
2022/05/01 09:01:39;;;;;;;20.10;15.63;;;12.50;99.90;;;;;;4937038;28;89871;-35
2022/05/01 09:04:06;;;;;;;21.50;15.77;;;12.50;99.90;;;;;;4937827;28;89460;-34
2022/05/01 09:06:34;;;;;;;14.20;12.77;;;12.50;99.90;;;;;;4917469;28;90236;-34
2022/05/01 09:09:04;;;;;;;15.50;13.10;;;12.50;99.90;;;;;;4935534;28;89661;-35
2022/05/01 09:14:13;;;;;;;17.63;14.90;;;12.90;99.90;;;;;;4937865;28;89474;-31
2022/05/01 09:16:39;;;;;;;17.02;14.00;;;12.60;99.90;;;;;;4937002;28;89752;-31
2022/05/01 09:19:05;;;;;;;20.65;14.40;;;12.60;99.90;;;;;;4936363;28;90818;-36
2022/05/01 09:21:50;;;;;;;16.55;14.82;;;12.50;99.90;;;;;;4936367;28;90193;-35
2022/05/01 09:24:28;;;;;;;14.88;12.57;;;12.30;99.90;;;;;;4937679;28;88393;-33
2022/05/01 09:26:55;;;;;;;13.35;11.82;;;12.40;99.90;;;;;;4937136;28;90146;-37
2022/05/01 09:29:25;;;;;;;14.13;12.55;;;12.50;99.90;;;;;;4936858;28;89003;-34
2022/05/01 09:31:55;;;;;;;15.68;12.73;;;12.80;99.90;;;;;;4936359;28;89671;-35
2022/05/01 09:34:26;;;;;;;13.77;12.38;;;13.20;99.90;;;;;;4936913;28;88628;-34
2022/05/01 09:36:52;;;;;;;16.90;12.45;;;13.20;99.90;;;;;;4936271;28;90458;-34
2022/05/01 09:39:19;;;;;;;19.90;14.05;;;13.30;99.90;;;;;;4937435;28;89619;-36
2022/05/01 09:41:45;;;;;;;13.77;12.10;;;13.20;99.90;;;;;;4935698;28;88657;-35
2022/05/01 09:44:15;;;;;;;13.20;10.63;;;13.40;99.90;;;;;;4937132;28;90992;-32
2022/05/01 09:46:40;;;;;;;14.75;11.25;;;13.30;99.90;;;;;;4936570;28;89163;-34
2022/05/01 09:49:14;;;;;;;13.25;10.90;;;13.50;99.90;;;;;;4936604;28;89363;-36
2022/05/01 09:51:59;;;;;;;13.85;11.10;;;13.60;99.90;;;;;;4937228;28;90047;-32
2022/05/01 09:54:26;;;;;;;12.70;10.98;;;13.30;99.90;;;;;;4936380;28;88914;-34
2022/05/01 09:56:54;;;;;;;12.52;10.93;;;13.10;99.90;;;;;;4936341;28;90269;-32
2022/05/01 09:59:24;;;;;;;12.00;10.68;;;12.70;99.90;;;;;;4936664;28;89633;-33
2022/05/01 10:02:02;;;;;;;12.70;11.40;;;13.30;99.90;;;;;;4933573;28;89908;-34
2022/05/01 10:04:29;;;;;;;15.07;10.17;;;13.70;99.90;;;;;;4935514;28;88140;-37
2022/05/01 10:06:56;;;;;;;13.10;10.10;;;13.10;99.90;;;;;;4923743;28;89997;-37
2022/05/01 10:09:27;;;;;;;12.00;10.88;;;13.10;99.90;;;;;;4921688;28;90546;-32
2022/05/01 10:11:57;;;;;;;18.00;10.48;;;13.30;99.90;;;;;;4939608;28;90712;-34
2022/05/01 10:14:24;;;;;;;17.02;10.75;;;13.40;99.90;;;;;;4940000;28;90320;-34
2022/05/01 10:16:50;;;;;;;10.70;9.63;;;13.20;99.90;;;;;;4939548;28;90394;-32
2022/05/01 10:19:17;;;;;;;11.80;10.70;;;13.10;99.90;;;;;;4940978;28;89960;-38
2022/05/01 10:21:48;;;;;;;13.75;11.00;;;13.20;99.90;;;;;;4940572;28;89411;-35
2022/05/01 10:24:15;;;;;;;12.52;11.30;;;13.50;99.90;;;;;;4940458;28;88153;-34
2022/05/01 10:27:04;;;;;;;11.35;10.18;;;13.90;99.90;;;;;;4939650;28;89529;-35
2022/05/01 10:33:00;;;;;;;9.52;8.57;;;14.40;99.90;;;;;;4939860;28;90067;-37
2022/05/01 10:35:46;;;;;;;9.77;8.67;;;14.10;95.20;;;;;;4940832;28;89212;-36
2022/05/01 10:38:14;;;;;;;12.57;9.25;;;14.40;95.20;;;;;;4939241;28;89697;-34
2022/05/01 10:40:54;;;;;;;11.85;9.68;;;13.90;90.00;;;;;;4939849;28;90005;-33
2022/05/01 10:43:31;;;;;;;12.07;9.52;;;14.00;90.20;;;;;;4940253;28;89839;-35
2022/05/01 10:46:03;;;;;;;9.18;8.25;;;14.00;99.90;;;;;;4940899;28;89716;-33
2022/05/01 10:48:34;;;;;;;10.02;9.07;;;13.80;83.70;;;;;;4939853;28;90743;-36
2022/05/01 10:51:34;;;;;;;12.52;8.95;;;14.00;84.00;;;;;;4940418;28;90599;-34
2022/05/01 10:54:13;;;;;;;9.73;8.50;;;14.00;89.00;;;;;;4921982;28;89493;-33
2022/05/01 10:56:42;;;;;;;11.32;9.75;;;13.80;99.80;;;;;;4940525;28;89153;-37
2022/05/01 10:59:29;;;;;;;10.73;9.27;;;13.50;99.90;;;;;;4940106;28;91087;-32
2022/05/01 11:01:57;;;;;;;13.70;9.23;;;13.40;99.90;;;;;;4939073;28;90488;-33
2022/05/01 11:04:23;;;;;;;10.17;9.10;;;13.40;99.90;;;;;;4939970;28;91978;-34
2022/05/01 11:06:53;;;;;;;10.82;9.73;;;13.30;99.30;;;;;;4940169;28;90052;-33
2022/05/01 11:09:19;;;;;;;11.77;9.35;;;13.00;99.90;;;;;;4939753;28;89089;-35
2022/05/01 11:11:45;;;;;;;10.02;8.23;;;12.80;99.90;;;;;;4940653;28;89627;-34
2022/05/01 11:14:13;;;;;;;10.52;8.32;;;12.90;99.90;;;;;;4938767;28;89497;-32
2022/05/01 11:16:52;;;;;;;10.73;9.57;;;12.90;99.90;;;;;;4939664;28;89257;-32
2022/05/01 11:19:17;;;;;;;10.77;8.90;;;12.90;99.90;;;;;;4940068;28;90085;-34
2022/05/01 11:21:49;;;;;;;11.95;9.30;;;12.70;99.90;;;;;;4940405;28;89777;-35
2022/05/01 11:24:15;;;;;;;11.07;8.93;;;12.50;99.90;;;;;;4940027;28;88738;-33
2022/05/01 11:27:11;;;;;;;9.63;8.48;;;12.70;99.90;;;;;;4939489;28;89458;-36
2022/05/01 11:29:37;;;;;;;11.77;9.48;;;12.80;99.90;;;;;;4938929;28;90224;-31
2022/05/01 11:32:19;;;;;;;9.18;7.93;;;12.90;99.00;;;;;;4939756;28;90708;-33
2022/05/01 11:34:50;;;;;;;11.85;8.80;;;12.80;99.90;;;;;;4939269;28;90618;-35
2022/05/01 11:37:15;;;;;;;21.50;15.80;;;12.70;98.80;;;;;;4938903;28;87725;-32
2022/05/01 11:39:49;;;;;;;14.30;9.88;;;12.80;99.90;;;;;;4938622;28;90421;-34
2022/05/01 11:42:24;;;;;;;9.23;7.72;;;12.80;99.90;;;;;;4939517;28;89519;-33
2022/05/01 11:44:55;;;;;;;8.88;7.30;;;12.90;98.20;;;;;;4939834;28;89801;-34
2022/05/01 11:47:25;;;;;;;7.95;7.18;;;13.10;99.60;;;;;;4939652;28;88252;-32
2022/05/01 11:49:51;;;;;;;8.40;6.68;;;13.20;96.20;;;;;;4939132;28;91004;-33
2022/05/01 11:52:17;;;;;;;7.93;6.95;;;13.30;93.70;;;;;;4939249;28;90420;-33
2022/05/01 11:55:06;;;;;;;10.55;7.35;;;13.30;96.50;;;;;;4939039;28;90527;-34
2022/05/01 12:03:05;;;;;;;8.00;7.05;;;14.00;73.30;;;;;;4939433;28;89507;-35
2022/05/01 12:05:33;;;;;;;11.02;6.10;;;14.30;73.10;;;;;;4939498;28;89872;-37
2022/05/01 12:07:59;;;;;;;6.68;6.07;;;14.50;71.00;;;;;;4939762;28;89400;-35
2022/05/01 12:10:28;;;;;;;6.03;5.53;;;14.40;66.10;;;;;;4939402;28;89792;-33
2022/05/01 12:12:53;;;;;;;5.20;4.70;;;14.50;66.10;;;;;;4938717;28;88385;-32
2022/05/01 12:15:19;;;;;;;5.95;5.35;;;14.40;64.20;;;;;;4939285;28;89750;-36
2022/05/01 12:17:44;;;;;;;6.97;6.25;;;14.20;64.80;;;;;;4938634;28;90610;-34
2022/05/01 12:20:11;;;;;;;5.75;5.25;;;14.40;67.90;;;;;;4939211;28;89882;-32
2022/05/01 12:22:37;;;;;;;12.63;6.22;;;14.40;64.80;;;;;;4938410;28;89662;-34
2022/05/01 12:25:14;;;;;;;6.85;6.25;;;14.60;65.60;;;;;;4937857;28;89489;-35
2022/05/01 12:27:40;;;;;;;8.55;6.50;;;14.20;62.30;;;;;;4919867;28;89982;-34
2022/05/01 12:30:08;;;;;;;6.93;6.28;;;14.20;63.10;;;;;;4921604;28;90215;-35
2022/05/01 12:32:33;;;;;;;7.68;6.13;;;14.30;64.60;;;;;;4930208;28;91234;-34
2022/05/01 12:35:00;;;;;;;5.78;4.50;;;14.50;65.90;;;;;;4928634;28;89135;-37
2022/05/01 12:37:29;;;;;;;7.53;5.30;;;14.80;62.40;;;;;;4940521;22;89645;-32
2022/05/01 12:40:00;;;;;;;5.93;5.30;;;14.60;62.00;;;;;;4899464;28;90812;-37
2022/05/01 12:45:13;;;;;;;7.93;5.10;;;15.10;59.70;;;;;;4881103;28;90584;-35
2022/05/01 12:47:52;;;;;;;6.75;5.90;;;14.90;59.10;;;;;;4878766;28;89393;-33
2022/05/01 12:50:21;;;;;;;4.88;4.30;;;14.60;60.30;;;;;;4899643;28;90374;-37
2022/05/01 12:52:53;;;;;;;5.00;4.47;;;14.60;60.00;;;;;;4899199;28;90257;-35
2022/05/01 12:55:21;;;;;;;6.75;4.47;;;14.50;60.00;;;;;;4899513;28;89548;-36
2022/05/01 12:57:55;;;;;;;11.40;5.28;;;14.40;59.20;;;;;;4899606;28;89236;-36
2022/05/01 13:00:30;;;;;;;4.70;4.30;;;14.30;59.10;;;;;;4899954;28;90553;-33
2022/05/01 13:03:33;;;;;;;5.07;4.68;;;14.50;59.50;;;;;;4899134;28;90200;-33
2022/05/01 13:06:06;;;;;;;6.10;4.45;;;14.50;60.40;;;;;;4896678;28;89757;-34
2022/05/01 13:08:35;;;;;;;7.55;4.82;;;14.30;60.30;;;;;;4898965;28;89472;-34
2022/05/01 13:11:10;;;;;;;;;;;14.50;59.10;;;;;;4899693;28;90037;-34
2022/05/01 13:13:50;;;;;;;6.35;5.75;;;14.50;57.50;;;;;;4900720;28;89804;-33